Weather at Lloyd Stearman Field

Public forecast

Using degrees Fahrenheit for public forecast. Weather courtesy of forecast.io.

Closest aviation weather report (METAR) to Lloyd Stearman Field

Closest report is Colonel James Jabara Airport, 5.4 nm (10.0 km) WSW. Retrieved 2020/10/29 08:54 UTC (41 minutes ago):

KAAO 290854Z AUTO 02008KT 9SM -RA BKN055 OVC085 05/02 A2990 RMK AO2 SLP131 P0004 60010 T00500022 53025

Closest aviation forecast (TAF) to Lloyd Stearman Field

Forecast is more than 6 hours old.

Closest forecast is Mc Connell Air Force Base, 11.9 nm (22.0 km) SW. Retrieved 2020-10-29 02:09 UTC (7 hours ago):

TAF KIAB 290200Z 2902/3008 02012KT 4800 RA BR OVC006 WS020/05045KT QNH2979INS BECMG 2911/2912 35018KT 8000 -DZ OVC010 QNH2996INS BECMG 2914/2915 35020G30KT 9999 NSW SCT020 QNH3017INS BECMG 2923/2924 VRB06KT 9999 SKC QNH3019INS BECMG 3005/3006 VRB06KT 9000 BR SKC QNH3021INS TX10/2920Z TN02/2912Z